createdAt,value
2018-11-29T00:00:56.765Z,0
2018-11-29T00:01:56.755Z,0
2018-11-29T00:02:56.487Z,0
2018-11-29T00:03:56.467Z,0
2018-11-29T00:04:56.689Z,0
2018-11-29T00:05:56.419Z,0
2018-11-29T00:06:56.646Z,0
2018-11-29T00:07:56.427Z,0
2018-11-29T00:08:56.605Z,0
2018-11-29T00:09:56.336Z,0
2018-11-29T00:10:56.564Z,0
2018-11-29T00:11:56.300Z,0
2018-11-29T00:12:56.529Z,0
2018-11-29T00:13:56.497Z,0
2018-11-29T00:14:56.235Z,0
2018-11-29T00:15:56.211Z,0
2018-11-29T00:16:56.446Z,0
2018-11-29T00:17:56.443Z,0
2018-11-29T00:18:56.394Z,0
2018-11-29T00:19:56.379Z,0
2018-11-29T00:20:56.353Z,0
2018-11-29T00:21:56.337Z,0
2018-11-29T00:22:56.068Z,0
2018-11-29T00:23:56.296Z,0
2018-11-29T00:24:56.279Z,0
2018-11-29T00:25:56.008Z,0
2018-11-29T00:26:55.986Z,0
2018-11-29T00:27:56.212Z,0
2018-11-29T00:28:56.196Z,0
2018-11-29T00:29:56.172Z,0
2018-11-29T00:30:55.653Z,0
2018-11-29T00:31:55.880Z,0
2018-11-29T00:32:56.111Z,0
2018-11-29T00:33:56.092Z,0
2018-11-29T00:34:56.074Z,0
2018-11-29T00:35:56.044Z,0
2018-11-29T00:36:56.026Z,0
2018-11-29T00:37:55.515Z,0
2018-11-29T00:38:55.986Z,0
2018-11-29T00:39:55.470Z,0
2018-11-29T00:40:55.700Z,0
2018-11-29T00:41:55.684Z,0
2018-11-29T00:42:55.907Z,0
2018-11-29T00:43:55.885Z,0
2018-11-29T00:44:55.868Z,0
2018-11-29T00:45:55.599Z,0
2018-11-29T00:46:55.584Z,0
2018-11-29T00:47:55.801Z,0
2018-11-29T00:48:55.786Z,0
2018-11-29T00:49:55.761Z,0
2018-11-29T00:50:56.657Z,0
2018-11-29T00:51:55.726Z,0
2018-11-29T00:52:55.692Z,0
2018-11-29T00:53:55.688Z,0
2018-11-29T00:54:55.161Z,0
2018-11-29T00:55:55.638Z,0
2018-11-29T00:56:55.619Z,0
2018-11-29T00:57:55.349Z,0
2018-11-29T00:58:55.580Z,0
2018-11-29T00:59:55.310Z,0
2018-11-29T01:00:55.282Z,0
2018-11-29T01:01:55.511Z,0
2018-11-29T01:02:55.498Z,0
2018-11-29T01:03:55.471Z,0
2018-11-29T01:04:55.205Z,0
2018-11-29T01:05:55.183Z,0
2018-11-29T01:06:55.168Z,0
2018-11-29T01:07:55.151Z,0
2018-11-29T01:08:55.117Z,0
2018-11-29T01:09:55.349Z,0
2018-11-29T01:10:55.381Z,0
2018-11-29T01:11:55.307Z,0
2018-11-29T01:12:55.316Z,0
2018-11-29T01:13:55.023Z,0
2018-11-29T01:14:55.016Z,0
2018-11-29T01:15:55.224Z,0
2018-11-29T01:16:54.970Z,0
2018-11-29T01:17:55.185Z,0
2018-11-29T01:18:54.958Z,0
2018-11-29T01:19:55.144Z,0
2018-11-29T01:20:54.883Z,0
2018-11-29T01:21:55.100Z,0
2018-11-29T01:22:55.094Z,0
2018-11-29T01:23:54.813Z,0
2018-11-29T01:24:55.049Z,0
2018-11-29T01:25:54.774Z,0
2018-11-29T01:26:54.761Z,0
2018-11-29T01:27:54.742Z,0
2018-11-29T01:28:54.724Z,0
2018-11-29T01:29:54.442Z,0
2018-11-29T01:30:54.925Z,0
2018-11-29T01:31:54.655Z,0
2018-11-29T01:32:54.690Z,0
2018-11-29T01:40:16.640Z,0
2018-11-29T01:41:01.477Z,0
2018-11-29T01:42:01.948Z,0
2018-11-29T01:43:01.937Z,0
2018-11-29T01:44:01.409Z,0
2018-11-29T01:45:01.636Z,0
2018-11-29T01:46:01.621Z,0
2018-11-29T01:47:01.596Z,0
2018-11-29T01:48:01.532Z,0
2018-11-29T01:49:01.314Z,0
2018-11-29T01:50:01.284Z,0
2018-11-29T01:51:01.770Z,0
2018-11-29T01:52:01.248Z,0
2018-11-29T01:53:00.984Z,0
2018-11-29T01:54:01.214Z,0
2018-11-29T01:55:01.437Z,0
2018-11-29T01:56:01.413Z,0
2018-11-29T01:57:01.390Z,0
2018-11-29T01:58:01.129Z,0
2018-11-29T01:59:01.609Z,0
2018-11-29T02:00:01.331Z,0
2018-11-29T02:01:01.562Z,0
2018-11-29T02:02:01.547Z,0
2018-11-29T02:03:02.760Z,0
2018-11-29T02:04:01.250Z,0
2018-11-29T02:05:01.232Z,0
2018-11-29T02:06:01.210Z,0
2018-11-29T02:07:00.942Z,0
2018-11-29T02:08:00.922Z,0
2018-11-29T02:09:01.152Z,0
2018-11-29T02:10:00.881Z,0
2018-11-29T02:11:01.113Z,0
2018-11-29T02:12:01.340Z,0
2018-11-29T02:13:01.328Z,0
2018-11-29T02:14:01.044Z,0
2018-11-29T02:15:00.777Z,0
2018-11-29T02:16:00.514Z,0
2018-11-29T02:17:00.983Z,0
2018-11-29T02:18:00.225Z,0
2018-11-29T02:19:00.699Z,0
2018-11-29T02:20:01.173Z,0
2018-11-29T02:21:01.162Z,0
2018-11-29T02:22:00.639Z,0
2018-11-29T02:23:00.618Z,0
2018-11-29T02:24:00.853Z,0
2018-11-29T02:25:00.574Z,0
2018-11-29T02:26:01.053Z,0
2018-11-29T02:27:00.537Z,0
2018-11-29T02:28:01.016Z,0
2018-11-29T02:29:00.501Z,0
2018-11-29T02:30:00.481Z,0
2018-11-29T02:31:00.229Z,0
2018-11-29T02:32:00.692Z,0
2018-11-29T02:33:00.663Z,0
2018-11-29T02:34:00.646Z,0
2018-11-29T02:35:00.632Z,0
2018-11-29T02:36:00.635Z,0
2018-11-29T02:37:00.331Z,0
2018-11-29T02:38:00.814Z,0
2018-11-29T02:39:00.544Z,0
2018-11-29T02:40:00.783Z,0
2018-11-29T02:41:00.518Z,0
2018-11-29T02:42:00.235Z,0
2018-11-29T02:43:00.723Z,0
2018-11-29T02:44:00.196Z,0
2018-11-29T02:45:00.420Z,0
2018-11-29T02:46:00.656Z,0
2018-11-29T02:47:00.125Z,0
2018-11-29T02:48:00.363Z,0
2018-11-29T02:48:59.837Z,0
2018-11-29T02:50:00.575Z,0
2018-11-29T02:51:00.314Z,0
2018-11-29T02:52:00.035Z,0
2018-11-29T02:53:00.257Z,0
2018-11-29T02:54:00.504Z,0
2018-11-29T02:55:00.223Z,0
2018-11-29T02:56:00.218Z,0
2018-11-29T02:57:00.188Z,0
2018-11-29T02:58:00.422Z,0
2018-11-29T02:59:00.135Z,0
2018-11-29T03:00:00.126Z,0
2018-11-29T03:01:00.357Z,0
2018-11-29T03:01:59.827Z,0
2018-11-29T03:03:00.314Z,0
2018-11-29T03:03:59.784Z,0
2018-11-29T03:05:00.321Z,0
2018-11-29T03:05:59.496Z,0
2018-11-29T03:06:59.974Z,0
2018-11-29T03:07:59.711Z,0
2018-11-29T03:08:59.936Z,0
2018-11-29T03:09:59.683Z,0
2018-11-29T03:11:00.148Z,0
2018-11-29T03:11:59.628Z,0
2018-11-29T03:25:58.460Z,0
2018-11-29T03:26:08.102Z,0
2018-11-29T03:38:39.205Z,0
2018-11-29T03:39:09.394Z,0
2018-11-29T03:40:09.462Z,0
2018-11-29T03:41:09.358Z,0
2018-11-29T03:42:09.332Z,0
2018-11-29T03:43:09.566Z,0
2018-11-29T03:44:09.542Z,0
2018-11-29T03:45:09.274Z,0
2018-11-29T03:46:09.515Z,0
2018-11-29T03:47:09.735Z,0
2018-11-29T03:48:09.456Z,0
2018-11-29T03:49:09.445Z,0
2018-11-29T03:50:09.169Z,0
2018-11-29T03:51:09.410Z,0
2018-11-29T03:52:09.135Z,0
2018-11-29T03:53:09.617Z,0
2018-11-29T03:54:09.339Z,0
2018-11-29T03:55:09.619Z,0
2018-11-29T03:56:09.543Z,0
2018-11-29T03:57:09.272Z,0
2018-11-29T03:58:09.003Z,0
2018-11-29T03:59:09.492Z,0
2018-11-29T04:00:09.247Z,0
2018-11-29T04:01:09.458Z,0
2018-11-29T04:02:09.176Z,0
2018-11-29T04:03:09.161Z,0
2018-11-29T04:04:08.883Z,0
2018-11-29T04:05:09.111Z,0
2018-11-29T04:06:09.093Z,0
2018-11-29T04:07:08.834Z,0
2018-11-29T04:08:09.315Z,0
2018-11-29T04:09:09.042Z,0
2018-11-29T04:10:09.263Z,0
2018-11-29T04:11:09.248Z,0
2018-11-29T04:12:08.978Z,0
2018-11-29T04:13:08.709Z,0
2018-11-29T04:14:08.932Z,0
2018-11-29T04:15:08.930Z,0
2018-11-29T04:16:09.163Z,0
2018-11-29T04:17:08.905Z,0
2018-11-29T04:18:08.863Z,0
2018-11-29T04:19:08.839Z,0
2018-11-29T04:20:08.816Z,0
2018-11-29T04:21:08.547Z,0
2018-11-29T04:22:09.032Z,0
2018-11-29T04:23:08.762Z,0
2018-11-29T04:24:08.486Z,0
2018-11-29T04:25:08.465Z,0
2018-11-29T04:26:08.963Z,0
2018-11-29T04:27:08.426Z,0
2018-11-29T04:28:08.902Z,0
2018-11-29T04:29:08.881Z,0
2018-11-29T04:30:08.378Z,0
2018-11-29T04:31:08.607Z,0
2018-11-29T04:32:08.067Z,0
2018-11-29T04:33:08.557Z,0
2018-11-29T04:34:08.795Z,0
2018-11-29T04:35:08.770Z,0
2018-11-29T04:36:08.740Z,0
2018-11-29T04:37:08.235Z,0
2018-11-29T04:38:08.455Z,0
2018-11-29T04:39:08.435Z,0
2018-11-29T04:40:08.667Z,0
2018-11-29T04:41:08.631Z,0
2018-11-29T04:42:08.394Z,0
2018-11-29T04:43:08.119Z,0
2018-11-29T04:44:08.336Z,0
2018-11-29T04:45:08.560Z,0
2018-11-29T04:46:08.533Z,0
2018-11-29T04:47:08.018Z,0
2018-11-29T04:48:14.509Z,0
2018-11-29T04:49:08.225Z,0
2018-11-29T04:50:08.209Z,0
2018-11-29T04:51:08.481Z,0
2018-11-29T04:52:08.455Z,0
2018-11-29T04:53:07.896Z,0
2018-11-29T04:54:07.877Z,0
2018-11-29T04:55:08.355Z,0
2018-11-29T04:56:07.837Z,0
2018-11-29T04:57:08.083Z,0
2018-11-29T04:58:08.054Z,0
2018-11-29T04:59:08.273Z,0
2018-11-29T05:00:08.262Z,0
2018-11-29T05:01:08.230Z,0
2018-11-29T05:02:07.720Z,0
2018-11-29T05:03:08.209Z,0
2018-11-29T05:04:07.940Z,0
2018-11-29T05:05:08.491Z,0
2018-11-29T05:06:08.140Z,0
2018-11-29T05:07:07.869Z,0
2018-11-29T05:08:07.608Z,0
2018-11-29T05:09:08.085Z,0
2018-11-29T05:10:08.059Z,0
2018-11-29T05:11:07.783Z,0
2018-11-29T05:12:08.017Z,0
2018-11-29T05:13:07.738Z,0
2018-11-29T05:14:07.972Z,0
2018-11-29T05:15:07.704Z,0
2018-11-29T05:16:07.687Z,0
2018-11-29T05:17:07.424Z,0
2018-11-29T05:18:07.889Z,0
2018-11-29T05:19:07.382Z,0
2018-11-29T05:20:07.108Z,0
2018-11-29T05:21:07.580Z,0
2018-11-29T05:22:07.575Z,0
2018-11-29T05:23:07.793Z,0
2018-11-29T05:24:07.542Z,0
2018-11-29T05:25:07.289Z,0
2018-11-29T05:26:07.480Z,0
2018-11-29T05:27:07.508Z,0
2018-11-29T05:28:07.436Z,0
2018-11-29T05:29:07.417Z,0
2018-11-29T05:30:07.150Z,0
2018-11-29T05:31:07.125Z,0
2018-11-29T05:32:07.350Z,0
2018-11-29T05:33:06.838Z,0
2018-11-29T05:34:07.072Z,0
2018-11-29T05:35:07.543Z,0
2018-11-29T05:36:07.280Z,0
2018-11-29T05:37:07.262Z,0
2018-11-29T05:38:07.487Z,0
2018-11-29T05:39:07.230Z,0
2018-11-29T05:40:07.199Z,0
2018-11-29T05:41:07.178Z,0
2018-11-29T05:42:06.907Z,0
2018-11-29T05:43:07.136Z,0
2018-11-29T05:44:07.359Z,0
2018-11-29T05:45:07.109Z,0
2018-11-29T05:46:07.323Z,0
2018-11-29T05:47:07.053Z,0
2018-11-29T05:48:07.040Z,0
2018-11-29T05:49:07.006Z,0
2018-11-29T05:50:06.789Z,0
2018-11-29T05:51:07.278Z,0
2018-11-29T05:52:06.995Z,0
2018-11-29T05:53:07.197Z,0
2018-11-29T05:54:07.181Z,0
2018-11-29T05:55:06.643Z,0
2018-11-29T05:56:07.130Z,0
2018-11-29T05:57:06.847Z,0
2018-11-29T05:58:07.083Z,0
2018-11-29T05:59:06.564Z,0
2018-11-29T06:00:06.802Z,0
2018-11-29T06:01:07.019Z,0
2018-11-29T06:02:07.003Z,0
2018-11-29T06:03:06.484Z,0
2018-11-29T06:04:06.713Z,0
2018-11-29T06:05:06.431Z,0
2018-11-29T06:06:06.914Z,0
2018-11-29T06:07:06.910Z,0
2018-11-29T06:08:06.628Z,0
2018-11-29T06:09:06.639Z,0
2018-11-29T06:10:06.586Z,0
2018-11-29T06:11:06.570Z,0
2018-11-29T06:12:06.790Z,0
2018-11-29T06:13:06.273Z,0
2018-11-29T06:14:06.755Z,0
2018-11-29T06:15:06.735Z,0
2018-11-29T06:16:06.469Z,0
2018-11-29T06:17:06.443Z,0
2018-11-29T06:18:06.676Z,0
2018-11-29T06:19:06.654Z,0
2018-11-29T06:20:06.391Z,0
2018-11-29T06:21:06.617Z,0
2018-11-29T06:22:06.612Z,0
2018-11-29T06:23:06.339Z,0
2018-11-29T06:24:06.571Z,0
2018-11-29T06:25:06.542Z,0
2018-11-29T06:26:06.265Z,0
2018-11-29T06:27:06.246Z,0
2018-11-29T06:28:06.483Z,0
2018-11-29T06:29:06.209Z,0
2018-11-29T06:30:06.193Z,0
2018-11-29T06:31:06.166Z,0
2018-11-29T06:32:05.909Z,0
2018-11-29T06:33:06.123Z,0
2018-11-29T06:34:06.343Z,0
2018-11-29T06:35:05.600Z,0
2018-11-29T06:36:11.600Z,0
2018-11-29T06:37:06.046Z,0
2018-11-29T06:38:05.778Z,0
2018-11-29T06:39:06.264Z,0
2018-11-29T06:40:06.229Z,0
2018-11-29T06:41:05.772Z,0
2018-11-29T06:42:06.195Z,0
2018-11-29T06:43:05.677Z,5
2018-11-29T06:44:06.156Z,5
2018-11-29T06:45:06.137Z,5
2018-11-29T06:46:06.108Z,5
2018-11-29T06:54:31.658Z,5
2018-11-29T06:54:41.286Z,10
2018-11-29T06:55:41.515Z,10
2018-11-29T06:56:41.507Z,10
2018-11-29T06:57:41.471Z,10
2018-11-29T06:58:41.458Z,10
2018-11-29T06:59:41.433Z,10
2018-11-29T07:00:41.412Z,10
2018-11-29T07:01:41.150Z,10
2018-11-29T07:02:41.124Z,15
2018-11-29T07:03:41.104Z,15
2018-11-29T07:04:41.329Z,15
2018-11-29T07:05:41.066Z,15
2018-11-29T07:06:41.049Z,15
2018-11-29T07:07:41.029Z,20
2018-11-29T07:08:41.260Z,20
2018-11-29T07:09:41.228Z,20
2018-11-29T07:10:41.213Z,20
2018-11-29T07:11:40.946Z,25
2018-11-29T07:12:40.934Z,25
2018-11-29T07:13:41.155Z,25
2018-11-29T07:14:40.880Z,25
2018-11-29T07:15:41.110Z,30
2018-11-29T07:16:41.087Z,30
2018-11-29T07:17:40.574Z,30
2018-11-29T07:18:41.050Z,30
2018-11-29T07:19:41.049Z,30
2018-11-29T07:20:40.763Z,30
2018-11-29T07:21:40.748Z,35
2018-11-29T07:22:40.971Z,35
2018-11-29T07:23:40.953Z,35
2018-11-29T07:24:40.931Z,35
2018-11-29T07:25:40.664Z,35
2018-11-29T07:26:40.891Z,35
2018-11-29T07:27:40.876Z,35
2018-11-29T07:28:40.360Z,35
2018-11-29T07:29:40.584Z,35
2018-11-29T07:30:40.581Z,35
2018-11-29T07:31:40.799Z,35
2018-11-29T07:32:40.528Z,35
2018-11-29T07:33:40.503Z,40
2018-11-29T07:34:40.492Z,40
2018-11-29T07:35:40.467Z,40
2018-11-29T07:36:40.696Z,40
2018-11-29T07:37:40.681Z,40
2018-11-29T07:38:40.436Z,40
2018-11-29T07:39:40.647Z,45
2018-11-29T07:40:40.620Z,45
2018-11-29T07:41:40.597Z,45
2018-11-29T07:42:40.330Z,45
2018-11-29T07:43:40.313Z,45
2018-11-29T07:44:40.537Z,50
2018-11-29T07:45:40.517Z,50
2018-11-29T07:46:40.496Z,50
2018-11-29T07:47:40.491Z,50
2018-11-29T07:48:40.215Z,55
2018-11-29T07:49:40.195Z,55
2018-11-29T07:50:40.416Z,55
2018-11-29T07:51:40.402Z,55
2018-11-29T07:52:40.384Z,55
2018-11-29T07:53:40.112Z,60
2018-11-29T07:54:40.340Z,60
2018-11-29T07:55:40.078Z,60
2018-11-29T07:56:40.048Z,60
2018-11-29T07:57:40.031Z,65
2018-11-29T07:58:40.259Z,65
2018-11-29T07:59:40.248Z,65
2018-11-29T08:00:39.982Z,65
2018-11-29T08:01:40.201Z,65
2018-11-29T08:02:39.941Z,65
2018-11-29T08:03:39.668Z,70
2018-11-29T08:04:40.140Z,70
2018-11-29T08:05:39.877Z,70
2018-11-29T08:06:40.122Z,70
2018-11-29T08:07:40.084Z,70
2018-11-29T08:08:39.815Z,70
2018-11-29T08:09:40.046Z,70
2018-11-29T08:10:40.260Z,70
2018-11-29T08:11:39.754Z,70
2018-11-29T08:12:39.984Z,70
2018-11-29T08:13:39.962Z,70
2018-11-29T08:14:39.948Z,70
2018-11-29T08:15:39.925Z,70
2018-11-29T08:16:39.905Z,75
2018-11-29T08:17:39.937Z,75
2018-11-29T08:18:39.627Z,75
2018-11-29T08:19:39.605Z,75
2018-11-29T08:20:39.575Z,75
2018-11-29T08:21:39.810Z,80
2018-11-29T08:22:39.791Z,80
2018-11-29T08:23:39.314Z,80
2018-11-29T08:24:39.500Z,80
2018-11-29T08:25:39.490Z,80
2018-11-29T08:26:39.711Z,85
2018-11-29T08:27:39.700Z,85
2018-11-29T08:28:39.675Z,85
2018-11-29T08:29:44.599Z,85
2018-11-29T08:30:39.633Z,85
2018-11-29T08:31:39.377Z,85
2018-11-29T08:32:39.598Z,85
2018-11-29T08:33:39.328Z,85
2018-11-29T08:34:39.306Z,85
2018-11-29T08:35:39.596Z,85
2018-11-29T08:36:39.025Z,90
2018-11-29T08:37:39.497Z,90
2018-11-29T08:38:39.483Z,90
2018-11-29T08:39:39.474Z,90
2018-11-29T08:40:39.437Z,90
2018-11-29T08:41:39.424Z,90
2018-11-29T08:42:39.400Z,90
2018-11-29T08:43:39.021Z,90
2018-11-29T08:44:39.370Z,90
2018-11-29T08:45:39.359Z,90
2018-11-29T08:46:39.334Z,90
2018-11-29T08:47:39.063Z,90
2018-11-29T08:48:39.046Z,90
2018-11-29T08:49:39.292Z,95
2018-11-29T08:50:39.006Z,95
2018-11-29T08:51:39.039Z,95
2018-11-29T08:52:39.213Z,100
2018-11-29T08:53:38.948Z,100
2018-11-29T08:54:38.927Z,100
2018-11-29T08:55:38.669Z,105
2018-11-29T08:56:39.141Z,110
2018-11-29T08:57:38.891Z,110
2018-11-29T08:58:39.102Z,110
2018-11-29T08:59:39.399Z,110
2018-11-29T09:00:39.069Z,110
2018-11-29T09:01:38.802Z,110
2018-11-29T09:02:39.029Z,110
2018-11-29T09:03:39.007Z,110
2018-11-29T09:04:38.994Z,110
2018-11-29T09:05:43.503Z,110
2018-11-29T09:06:38.989Z,110
2018-11-29T09:07:38.982Z,110
2018-11-29T09:08:38.419Z,110
2018-11-29T09:09:38.897Z,110
2018-11-29T09:10:41.043Z,110
2018-11-29T09:11:38.867Z,110
2018-11-29T09:12:38.615Z,110
2018-11-29T09:13:38.578Z,110
2018-11-29T09:14:38.807Z,110
2018-11-29T09:15:38.796Z,110
2018-11-29T09:16:38.775Z,110
2018-11-29T09:17:38.516Z,105
2018-11-29T09:18:38.237Z,105
2018-11-29T09:19:42.224Z,105
2018-11-29T09:20:38.694Z,105
2018-11-29T09:21:38.674Z,105
2018-11-29T09:22:38.672Z,105
2018-11-29T09:23:38.641Z,105
2018-11-29T09:24:38.627Z,100
2018-11-29T09:25:38.364Z,100
2018-11-29T09:26:38.336Z,100
2018-11-29T09:27:38.567Z,100
2018-11-29T09:28:38.306Z,95
2018-11-29T09:29:38.538Z,95
2018-11-29T09:30:38.019Z,95
2018-11-29T09:31:38.500Z,95
2018-11-29T09:32:38.479Z,95
2018-11-29T09:33:38.517Z,95
2018-11-29T09:34:38.195Z,95
2018-11-29T09:35:38.422Z,95
2018-11-29T09:36:37.669Z,95
2018-11-29T09:37:38.395Z,95
2018-11-29T09:38:38.132Z,95
2018-11-29T09:39:38.108Z,95
2018-11-29T09:40:38.336Z,95
2018-11-29T09:41:38.325Z,95
2018-11-29T09:42:38.314Z,95
2018-11-29T09:43:38.280Z,100
2018-11-29T14:19:30.101Z,40
2018-11-29T14:20:30.668Z,40
2018-11-29T14:21:29.675Z,40
2018-11-29T14:22:29.632Z,40
2018-11-29T14:23:29.867Z,40
2018-11-29T14:24:29.374Z,35
2018-11-29T14:25:29.889Z,35
2018-11-29T14:26:29.853Z,35
2018-11-29T14:27:29.783Z,35
2018-11-29T14:28:29.805Z,35
2018-11-29T14:29:29.553Z,30
2018-11-29T14:30:29.796Z,30
2018-11-29T14:31:29.721Z,30
2018-11-29T14:32:30.821Z,30
2018-11-29T14:33:29.431Z,30
2018-11-29T14:35:52.804Z,25
2018-11-29T14:36:52.796Z,25
2018-11-29T14:37:52.832Z,25
2018-11-29T14:38:52.757Z,25
2018-11-29T14:39:52.488Z,25
2018-11-29T14:40:52.734Z,20
2018-11-29T14:41:52.806Z,20
2018-11-29T14:42:52.255Z,20
2018-11-29T14:43:52.665Z,20
2018-11-29T14:44:52.770Z,20
2018-11-29T14:45:52.726Z,20
2018-11-29T14:46:52.374Z,15
2018-11-29T14:47:52.360Z,15
2018-11-29T14:48:52.581Z,15
2018-11-29T14:49:52.587Z,15
2018-11-29T14:50:52.296Z,15
2018-11-29T14:51:57.530Z,15
2018-11-29T14:52:52.523Z,15
2018-11-29T14:53:52.507Z,10
2018-11-29T14:54:52.469Z,10
2018-11-29T14:55:51.996Z,10
2018-11-29T14:56:52.559Z,10
2018-11-29T14:57:52.424Z,10
2018-11-29T14:58:51.958Z,10
2018-11-29T14:59:51.885Z,10
2018-11-29T15:00:52.375Z,5
2018-11-29T15:01:52.111Z,5
2018-11-29T15:02:52.093Z,5
2018-11-29T15:03:52.314Z,5
2018-11-29T15:04:52.037Z,5
2018-11-29T15:05:52.039Z,5
2018-11-29T15:06:51.760Z,5
2018-11-29T15:07:52.284Z,5
2018-11-29T15:08:51.722Z,5
2018-11-29T15:09:51.952Z,5
2018-11-29T15:10:52.243Z,0
2018-11-29T15:11:52.162Z,0
2018-11-29T15:12:52.145Z,0
2018-11-29T15:13:51.663Z,0
2018-11-29T15:14:53.094Z,0
2018-11-29T15:15:52.094Z,0
2018-11-29T15:16:51.841Z,0
2018-11-29T15:17:52.061Z,0
2018-11-29T15:18:52.073Z,0
2018-11-29T15:19:52.024Z,0
2018-11-29T15:20:51.763Z,0
2018-11-29T15:21:52.030Z,0
2018-11-29T15:22:52.133Z,0
2018-11-29T15:23:51.948Z,0
2018-11-29T15:24:51.942Z,0
2018-11-29T15:25:51.930Z,0
2018-11-29T15:26:51.397Z,0
2018-11-29T15:27:51.886Z,0
2018-11-29T15:28:51.618Z,0
2018-11-29T15:29:51.837Z,0
2018-11-29T15:30:51.825Z,0
2018-11-29T15:31:51.811Z,0
2018-11-29T15:32:51.786Z,0
2018-11-29T15:33:51.518Z,0
2018-11-29T15:34:51.783Z,0
2018-11-29T15:35:51.556Z,0
2018-11-29T15:36:52.710Z,0
2018-11-29T15:37:51.699Z,0
2018-11-29T15:38:51.426Z,0
2018-11-29T15:39:51.412Z,0
2018-11-29T15:40:51.395Z,0
2018-11-29T15:41:51.616Z,0
2018-11-29T15:42:51.361Z,0
2018-11-29T15:43:51.580Z,0
2018-11-29T15:44:51.568Z,0
2018-11-29T15:45:51.555Z,0
2018-11-29T15:46:51.598Z,0
2018-11-29T15:47:51.609Z,0
2018-11-29T15:48:51.538Z,0
2018-11-29T15:49:51.269Z,0
2018-11-29T15:50:51.457Z,0
2018-11-29T15:51:50.769Z,0
2018-11-29T15:52:51.177Z,0
2018-11-29T15:53:51.403Z,0
2018-11-29T15:54:51.400Z,0
2018-11-29T15:55:51.396Z,0
2018-11-29T15:56:52.420Z,0
2018-11-29T15:57:51.329Z,0
2018-11-29T15:58:51.312Z,0
2018-11-29T15:59:51.288Z,0
2018-11-29T16:00:51.024Z,0
2018-11-29T16:01:51.262Z,0
2018-11-29T16:02:50.741Z,0
2018-11-29T16:03:51.225Z,0
2018-11-29T16:04:50.961Z,0
2018-11-29T16:05:51.178Z,0
2018-11-29T16:06:51.160Z,0
2018-11-29T16:07:50.664Z,0
2018-11-29T16:08:51.121Z,0
2018-11-29T16:09:50.862Z,0
2018-11-29T16:10:51.127Z,0
2018-11-29T16:11:51.176Z,0
2018-11-29T16:12:50.806Z,0
2018-11-29T16:13:50.536Z,0
2018-11-29T16:14:53.129Z,0
2018-11-29T16:15:51.014Z,0
2018-11-29T16:16:50.729Z,0
2018-11-29T16:17:50.953Z,0
2018-11-29T16:18:50.939Z,0
2018-11-29T16:19:50.918Z,0
2018-11-29T16:20:50.902Z,0
2018-11-29T16:21:53.727Z,0
2018-11-29T16:22:50.651Z,0
2018-11-29T16:23:50.923Z,0
2018-11-29T16:24:50.582Z,0
2018-11-29T16:25:50.806Z,0
2018-11-29T16:26:50.795Z,0
2018-11-29T16:27:50.529Z,0
2018-11-29T16:28:50.512Z,0
2018-11-29T16:29:50.746Z,0
2018-11-29T16:30:50.717Z,0
2018-11-29T16:31:50.707Z,0
2018-11-29T16:32:50.438Z,0
2018-11-29T16:33:50.412Z,0
2018-11-29T16:34:50.388Z,0
2018-11-29T16:35:50.630Z,0
2018-11-29T16:36:50.603Z,0
2018-11-29T16:37:50.592Z,0
2018-11-29T16:38:50.314Z,0
2018-11-29T16:39:50.542Z,0
2018-11-29T16:40:50.525Z,0
2018-11-29T16:41:50.507Z,0
2018-11-29T16:42:50.496Z,0
2018-11-29T16:43:50.477Z,0
2018-11-29T16:44:50.536Z,0
2018-11-29T16:45:50.006Z,0
2018-11-29T16:46:50.449Z,0
2018-11-29T16:47:50.146Z,0
2018-11-29T16:48:50.380Z,0
2018-11-29T16:49:50.141Z,0
2018-11-29T16:50:50.341Z,0
2018-11-29T16:51:50.084Z,0
2018-11-29T16:52:50.300Z,0
2018-11-29T16:53:49.790Z,0
2018-11-29T16:54:50.267Z,0
2018-11-29T16:55:50.248Z,0
2018-11-29T16:56:50.021Z,0
2018-11-29T16:57:50.201Z,0
2018-11-29T16:58:50.195Z,0
2018-11-29T16:59:49.927Z,0
2018-11-29T17:00:50.157Z,0
2018-11-29T17:01:49.912Z,0
2018-11-29T17:02:49.861Z,0
2018-11-29T17:03:49.843Z,0
2018-11-29T17:04:49.837Z,0
2018-11-29T17:05:50.058Z,0
2018-11-29T17:06:50.040Z,0
2018-11-29T17:07:49.772Z,0
2018-11-29T17:08:49.747Z,0
2018-11-29T17:09:49.985Z,0
2018-11-29T17:10:49.751Z,0
2018-11-29T17:11:50.012Z,0
2018-11-29T17:12:49.927Z,0
2018-11-29T17:13:49.657Z,0
2018-11-29T17:14:49.884Z,0
2018-11-29T17:15:49.621Z,0
2018-11-29T17:16:49.849Z,0
2018-11-29T17:17:49.845Z,0
2018-11-29T17:18:49.811Z,0
2018-11-29T17:19:49.785Z,0
2018-11-29T17:20:49.285Z,0
2018-11-29T17:21:49.834Z,0
2018-11-29T17:22:49.739Z,0
2018-11-29T17:23:49.716Z,0
2018-11-29T17:24:49.695Z,0
2018-11-29T17:25:49.678Z,0
2018-11-29T17:26:49.663Z,0
2018-11-29T17:27:49.427Z,0
2018-11-29T17:28:49.624Z,0
2018-11-29T17:29:49.604Z,0
2018-11-29T17:30:49.593Z,0
2018-11-29T17:31:49.566Z,0
2018-11-29T17:32:49.553Z,0
2018-11-29T17:33:49.286Z,0
2018-11-29T17:34:49.521Z,0
2018-11-29T17:35:49.302Z,0
2018-11-29T17:36:49.473Z,0
2018-11-29T17:37:49.452Z,0
2018-11-29T17:38:49.435Z,0
2018-11-29T17:39:49.174Z,0
2018-11-29T17:40:49.398Z,0
2018-11-29T17:41:49.129Z,0
2018-11-29T17:42:49.120Z,0
2018-11-29T17:43:49.095Z,0
2018-11-29T17:44:49.333Z,0
2018-11-29T17:45:49.051Z,0
2018-11-29T17:46:49.283Z,0
2018-11-29T17:47:49.273Z,0
2018-11-29T17:48:49.004Z,0
2018-11-29T17:49:49.228Z,0
2018-11-29T17:50:48.969Z,0
2018-11-29T17:51:53.619Z,0
2018-11-29T17:52:49.252Z,0
2018-11-29T17:53:49.158Z,0
2018-11-29T17:54:49.139Z,0
2018-11-29T17:55:49.244Z,0
2018-11-29T17:56:49.102Z,0
2018-11-29T17:57:48.829Z,0
2018-11-29T17:58:49.067Z,0
2018-11-29T17:59:49.040Z,0
2018-11-29T18:00:49.021Z,0
2018-11-29T18:01:48.757Z,0
2018-11-29T18:02:48.982Z,0
2018-11-29T18:03:48.812Z,0
2018-11-29T18:04:48.698Z,0
2018-11-29T18:05:48.925Z,0
2018-11-29T18:06:48.901Z,0
2018-11-29T18:07:48.888Z,0
2018-11-29T18:08:48.870Z,0
2018-11-29T18:09:48.883Z,0
2018-11-29T18:10:48.876Z,0
2018-11-29T18:12:24.916Z,0
2018-11-29T18:13:24.889Z,0
2018-11-29T18:14:24.886Z,0
2018-11-29T18:15:24.607Z,0
2018-11-29T18:16:24.842Z,0
2018-11-29T18:17:24.817Z,0
2018-11-29T18:18:24.800Z,0
2018-11-29T18:19:24.531Z,0
2018-11-29T18:20:24.757Z,0
2018-11-29T18:21:24.744Z,0
2018-11-29T18:22:24.725Z,0
2018-11-29T18:23:24.463Z,0
2018-11-29T18:24:24.726Z,0
2018-11-29T18:25:24.453Z,0
2018-11-29T18:26:24.650Z,0
2018-11-29T18:27:24.665Z,0
2018-11-29T18:28:24.608Z,0
2018-11-29T18:29:24.593Z,0
2018-11-29T18:30:24.355Z,0
2018-11-29T18:31:24.058Z,0
2018-11-29T18:32:24.529Z,0
2018-11-29T18:33:24.268Z,0
2018-11-29T18:34:24.500Z,0
2018-11-29T18:35:23.973Z,0
2018-11-29T18:36:24.358Z,0
2018-11-29T18:37:24.438Z,0
2018-11-29T18:38:24.420Z,0
2018-11-29T18:39:24.155Z,0
2018-11-29T18:40:24.381Z,0
2018-11-29T18:41:24.160Z,0
2018-11-29T18:42:24.337Z,0
2018-11-29T18:43:24.323Z,0
2018-11-29T18:44:24.302Z,0
2018-11-29T18:45:24.309Z,0
2018-11-29T18:46:26.707Z,0
2018-11-29T18:47:24.259Z,0
2018-11-29T18:48:24.232Z,0
2018-11-29T18:49:24.212Z,0
2018-11-29T18:50:24.194Z,0
2018-11-29T18:51:23.935Z,0
2018-11-29T18:52:24.156Z,0
2018-11-29T18:53:23.885Z,0
2018-11-29T18:54:24.114Z,0
2018-11-29T18:55:23.850Z,0
2018-11-29T18:56:24.073Z,0
2018-11-29T18:57:24.069Z,0
2018-11-29T18:58:24.043Z,0
2018-11-29T18:59:24.027Z,0
2018-11-29T19:00:24.016Z,0
2018-11-29T19:01:23.987Z,0
2018-11-29T19:02:24.728Z,0
2018-11-29T19:03:23.946Z,0
2018-11-29T19:04:23.931Z,0
2018-11-29T19:05:23.913Z,0
2018-11-29T19:06:23.893Z,0
2018-11-29T19:07:23.654Z,0
2018-11-29T19:08:23.861Z,0
2018-11-29T19:09:23.588Z,0
2018-11-29T19:10:23.563Z,0
2018-11-29T19:11:23.958Z,0
2018-11-29T19:12:23.796Z,0
2018-11-29T19:13:23.761Z,0
2018-11-29T19:14:23.740Z,0
2018-11-29T19:15:23.719Z,0
2018-11-29T19:16:23.699Z,0
2018-11-29T19:17:27.530Z,0
2018-11-29T19:18:23.172Z,0
2018-11-29T19:19:23.884Z,0
2018-11-29T19:20:23.632Z,0
2018-11-29T19:21:23.608Z,0
2018-11-29T19:22:23.632Z,0
2018-11-29T19:23:23.572Z,0
2018-11-29T19:24:23.616Z,0
2018-11-29T19:25:23.349Z,0
2018-11-29T19:26:23.553Z,0
2018-11-29T19:27:22.998Z,0
2018-11-29T19:28:23.236Z,0
2018-11-29T19:29:23.504Z,0
2018-11-29T19:30:23.436Z,0
2018-11-29T19:31:23.419Z,0
2018-11-29T19:32:23.407Z,0
2018-11-29T19:33:26.868Z,0
2018-11-29T19:34:23.440Z,0
2018-11-29T19:35:23.405Z,0
2018-11-29T19:36:23.328Z,0
2018-11-29T19:37:23.068Z,0
2018-11-29T19:38:23.293Z,0
2018-11-29T19:39:23.021Z,0
2018-11-29T19:40:23.599Z,0
2018-11-29T19:41:23.226Z,0
2018-11-29T19:42:23.380Z,0
2018-11-29T19:43:22.957Z,0
2018-11-29T19:44:23.173Z,0
2018-11-29T19:45:23.152Z,0
2018-11-29T19:46:23.137Z,0
2018-11-29T19:47:22.868Z,0
2018-11-29T19:48:23.555Z,0
2018-11-29T19:49:23.195Z,0
2018-11-29T19:50:23.093Z,0
2018-11-29T19:51:23.044Z,0